Time;durP1;ratioP1;P1;durP2;ratioP2;P2;SDS_P1;SDS_P2;PMS_P1;PMS_P2;Temp;Humidity;BMP_temperature;BMP_pressure;BME280_temperature;BME280_humidity;BME280_pressure;Samples;Min_cycle;Max_cycle;Signal;HPM_P1;HPM_P2
2024/02/05 00:01:17;;;;;;;2.30;0.70;;;;;;;3.88;82.99;96612.44;104803;1259;97984;-76
2024/02/05 00:03:48;;;;;;;0.80;0.50;;;;;;;3.85;83.22;96614.79;104825;1258;97911;-76
2024/02/05 00:06:16;;;;;;;3.20;0.50;;;;;;;3.82;83.41;96613.36;104838;1258;102678;-76
2024/02/05 00:08:44;;;;;;;1.00;0.50;;;;;;;3.82;83.40;96615.13;104809;1256;101173;-76
2024/02/05 00:11:12;;;;;;;1.30;0.50;;;;;;;3.82;83.55;96618.38;104808;1258;99533;-76
2024/02/05 00:13:40;;;;;;;1.30;0.60;;;;;;;3.81;83.48;96614.08;104822;1255;98553;-76
2024/02/05 00:16:08;;;;;;;0.70;0.40;;;;;;;3.80;83.41;96618.95;104820;1258;98533;-78
2024/02/05 00:18:36;;;;;;;0.50;0.30;;;;;;;3.80;83.56;96619.27;104834;1258;103557;-78
2024/02/05 00:21:04;;;;;;;2.10;0.50;;;;;;;3.80;83.32;96616.59;104787;1259;101404;-78
2024/02/05 00:23:32;;;;;;;0.60;0.40;;;;;;;3.82;83.53;96615.91;104838;1260;99798;-79
2024/02/05 00:26:00;;;;;;;0.80;0.60;;;;;;;3.82;83.52;96610.92;104803;1254;97990;-79
2024/02/05 00:28:28;;;;;;;0.70;0.50;;;;;;;3.82;83.59;96612.66;104832;1258;98412;-79
2024/02/05 00:30:55;;;;;;;0.90;0.40;;;;;;;3.83;83.62;96613.25;104869;1255;103276;-76
2024/02/05 00:33:23;;;;;;;1.20;0.70;;;;;;;3.85;83.45;96610.73;104907;1254;108136;-76
2024/02/05 00:35:51;;;;;;;1.50;0.60;;;;;;;3.85;83.60;96603.42;104674;1258;100008;-76
2024/02/05 00:38:19;;;;;;;0.50;0.30;;;;;;;3.84;83.81;96605.83;104801;1255;97954;-76
2024/02/05 00:40:47;;;;;;;1.30;0.30;;;;;;;3.83;84.05;96608.82;104808;1271;97901;-76
2024/02/05 00:43:15;;;;;;;0.80;0.40;;;;;;;3.80;84.19;96608.98;104800;1254;102208;-76
2024/02/05 00:45:43;;;;;;;0.60;0.40;;;;;;;3.78;84.21;96609.20;104805;1254;101317;-78
2024/02/05 00:48:11;;;;;;;0.60;0.20;;;;;;;3.78;84.13;96607.48;104689;1256;100156;-79
2024/02/05 00:50:41;;;;;;;1.20;0.40;;;;;;;3.78;83.99;96609.60;104710;1258;99233;-77
2024/02/05 00:53:09;;;;;;;0.90;0.60;;;;;;;3.76;84.07;96602.18;104829;1258;98527;-79
2024/02/05 00:55:36;;;;;;;0.40;0.30;;;;;;;3.73;84.19;96602.88;104788;1254;104379;-79
2024/02/05 00:58:04;;;;;;;0.70;0.50;;;;;;;3.73;84.24;96594.62;104832;1255;101329;-80
2024/02/05 01:00:32;;;;;;;0.70;0.30;;;;;;;3.72;84.53;96596.95;104875;1258;99995;-79
2024/02/05 01:03:00;;;;;;;0.70;0.50;;;;;;;3.70;84.82;96591.38;104865;1258;97954;-79
2024/02/05 01:05:28;;;;;;;0.90;0.50;;;;;;;3.68;84.94;96587.66;104892;1255;98855;-78
2024/02/05 01:07:56;;;;;;;1.00;0.50;;;;;;;3.68;84.98;96587.40;104872;1258;103220;-79
2024/02/05 01:10:24;;;;;;;0.80;0.40;;;;;;;3.68;84.93;96591.30;104904;1258;101761;-79
2024/02/05 01:12:51;;;;;;;1.30;0.30;;;;;;;3.69;84.88;96596.00;104770;1272;99941;-78
2024/02/05 01:15:19;;;;;;;1.70;0.50;;;;;;;3.69;85.06;96589.73;104803;1258;99234;-78
2024/02/05 01:17:46;;;;;;;0.80;0.70;;;;;;;3.68;85.00;96585.55;104845;1258;97804;-76
2024/02/05 01:20:14;;;;;;;1.70;0.50;;;;;;;3.69;85.10;96583.52;104813;1258;103666;-76
2024/02/05 01:22:42;;;;;;;0.70;0.40;;;;;;;3.69;85.32;96579.91;104844;1257;101512;-76
2024/02/05 01:25:10;;;;;;;0.50;0.50;;;;;;;3.69;85.30;96579.37;104729;1261;100089;-76
2024/02/05 01:27:37;;;;;;;1.20;0.50;;;;;;;3.70;85.12;96576.96;104818;1258;99151;-76
2024/02/05 01:30:05;;;;;;;0.70;0.40;;;;;;;3.72;85.23;96580.11;104829;1254;98429;-76
2024/02/05 01:32:33;;;;;;;0.30;0.30;;;;;;;3.73;85.35;96572.57;104769;1271;103620;-75
2024/02/05 01:35:01;;;;;;;0.90;0.40;;;;;;;3.72;85.55;96567.05;104755;1270;101642;-75
2024/02/05 01:37:29;;;;;;;0.70;0.30;;;;;;;3.72;85.56;96571.33;104785;1258;99943;-75
2024/02/05 01:39:56;;;;;;;0.50;0.40;;;;;;;3.74;85.44;96565.64;104794;1254;97885;-75
2024/02/05 01:42:24;;;;;;;0.80;0.60;;;;;;;3.75;85.44;96556.15;104869;1256;99329;-75
2024/02/05 01:44:53;;;;;;;0.60;0.50;;;;;;;3.78;85.51;96555.69;104693;1255;103525;-75
2024/02/05 01:47:22;;;;;;;1.40;0.60;;;;;;;3.79;85.96;96553.89;104748;1271;101654;-80
2024/02/05 01:49:50;;;;;;;0.40;0.30;;;;;;;3.82;85.95;96552.00;104874;1258;99041;-79
2024/02/05 01:52:21;;;;;;;0.40;0.30;;;;;;;3.84;86.01;96540.73;104808;1278;97884;-78
2024/02/05 01:54:49;;;;;;;1.20;0.50;;;;;;;3.85;86.01;96535.38;104792;1258;99327;-79
2024/02/05 01:57:17;;;;;;;0.30;0.20;;;;;;;3.87;86.06;96532.45;104784;1261;103613;-78
2024/02/05 01:59:45;;;;;;;0.60;0.40;;;;;;;3.89;85.92;96521.20;104895;1258;100378;-79
2024/02/05 02:02:14;;;;;;;2.00;0.30;;;;;;;3.91;85.88;96520.38;104780;1258;99961;-79
2024/02/05 02:04:44;;;;;;;0.90;0.60;;;;;;;3.93;86.01;96520.52;104911;1258;97923;-82
2024/02/05 02:07:11;;;;;;;1.20;0.80;;;;;;;3.94;85.99;96522.84;104886;1258;98339;-79
2024/02/05 02:09:39;;;;;;;0.50;0.30;;;;;;;3.95;86.11;96513.31;104765;1258;103900;-78
2024/02/05 02:12:08;;;;;;;0.10;0.10;;;;;;;3.96;86.03;96510.13;104885;1273;101480;-79
2024/02/05 02:14:35;;;;;;;0.50;0.30;;;;;;;3.99;85.91;96508.73;104809;1258;99943;-79
2024/02/05 02:17:03;;;;;;;0.90;0.50;;;;;;;4.01;86.05;96509.73;104774;1256;99269;-82
2024/02/05 02:19:41;;;;;;;0.70;0.30;;;;;;;4.01;86.19;96505.45;104916;1258;99231;-80
2024/02/05 02:22:24;;;;;;;0.80;0.60;;;;;;;4.01;86.23;96504.23;104936;1259;103528;-83
2024/02/05 02:24:53;;;;;;;0.40;0.40;;;;;;;4.01;86.21;96496.21;104805;1258;101295;-77
2024/02/05 02:27:21;;;;;;;1.60;0.60;;;;;;;4.02;86.02;96492.03;104878;1270;100369;-76
2024/02/05 02:29:50;;;;;;;0.40;0.20;;;;;;;4.02;85.89;96487.48;104749;1262;97996;-76
2024/02/05 02:32:37;;;;;;;0.90;0.30;;;;;;;4.03;85.94;96480.55;104850;1275;98382;-76
2024/02/05 02:35:18;;;;;;;0.90;0.30;;;;;;;4.03;85.82;96474.50;104596;1262;102977;-76
2024/02/05 02:38:00;;;;;;;0.30;0.20;;;;;;;4.03;85.92;96475.33;104809;1258;101309;-76
2024/02/05 02:40:30;;;;;;;;;;;;;;;4.04;85.87;96469.33;104774;1258;99948;-76
2024/02/05 02:43:02;;;;;;;0.70;0.30;;;;;;;4.03;85.96;96460.94;104814;1259;98044;-76
2024/02/05 02:45:31;;;;;;;0.10;0.10;;;;;;;4.04;85.91;96458.12;104805;1261;98358;-76
2024/02/05 02:47:59;;;;;;;0.40;0.30;;;;;;;4.06;86.01;96456.58;104840;1257;103998;-76
2024/02/05 02:50:27;;;;;;;0.30;0.30;;;;;;;4.07;85.83;96458.08;104807;1258;101295;-76
2024/02/05 02:52:55;;;;;;;0.30;0.20;;;;;;;4.08;85.78;96456.85;104800;1270;99925;-75
2024/02/05 02:55:23;;;;;;;0.10;0.10;;;;;;;4.09;85.75;96453.20;104748;1268;98061;-76
2024/02/05 02:57:51;;;;;;;0.60;0.40;;;;;;;4.11;85.72;96447.03;104891;1271;98420;-76
2024/02/05 03:00:18;;;;;;;0.50;0.20;;;;;;;4.13;85.76;96446.40;104718;1270;103514;-76
2024/02/05 03:02:46;;;;;;;0.80;0.20;;;;;;;4.13;85.73;96442.48;104801;1258;101749;-75
2024/02/05 03:05:14;;;;;;;0.50;0.30;;;;;;;4.14;85.77;96441.61;104875;1258;100070;-74
2024/02/05 03:07:41;;;;;;;0.60;0.40;;;;;;;4.16;85.78;96437.10;104821;1259;99119;-74
2024/02/05 03:10:10;;;;;;;1.70;1.00;;;;;;;4.17;85.84;96429.01;104805;1255;98407;-74
2024/02/05 03:12:37;;;;;;;0.90;0.60;;;;;;;4.17;85.75;96426.71;104785;1257;103281;-74
2024/02/05 03:15:06;;;;;;;1.80;0.90;;;;;;;4.16;85.90;96423.21;104849;1259;101695;-74
2024/02/05 03:17:33;;;;;;;0.90;0.80;;;;;;;4.16;85.91;96419.71;104795;1256;100043;-81
2024/02/05 03:20:01;;;;;;;1.60;0.80;;;;;;;4.16;85.92;96419.84;104720;1271;98926;-81
2024/02/05 03:22:29;;;;;;;1.70;0.80;;;;;;;4.17;85.89;96414.30;104778;1254;98325;-81
2024/02/05 03:24:56;;;;;;;1.30;0.80;;;;;;;4.17;85.89;96410.85;104860;1258;103730;-81
2024/02/05 03:27:24;;;;;;;0.40;0.40;;;;;;;4.15;86.23;96409.27;104835;1271;101310;-81
2024/02/05 03:29:52;;;;;;;1.00;0.50;;;;;;;4.14;86.14;96403.19;104698;1261;100079;-81
2024/02/05 03:32:19;;;;;;;0.90;0.50;;;;;;;4.14;86.14;96399.85;104771;1260;97931;-81
2024/02/05 03:34:47;;;;;;;0.90;0.50;;;;;;;4.12;86.18;96403.77;104784;1258;98416;-81
2024/02/05 03:37:15;;;;;;;1.20;0.60;;;;;;;4.11;86.23;96395.06;104777;1258;103859;-84
2024/02/05 03:39:42;;;;;;;0.80;0.60;;;;;;;4.11;86.19;96390.62;104806;1258;101384;-83
2024/02/05 03:42:10;;;;;;;0.60;0.40;;;;;;;4.11;86.11;96386.88;104906;1259;99831;-75
2024/02/05 03:44:38;;;;;;;0.30;0.30;;;;;;;4.12;85.98;96384.13;104767;1258;98857;-75
2024/02/05 03:47:05;;;;;;;0.40;0.40;;;;;;;4.12;86.04;96381.50;104862;1270;99194;-74
2024/02/05 03:49:33;;;;;;;0.50;0.50;;;;;;;4.12;86.18;96374.77;104760;1254;103814;-74
2024/02/05 03:52:01;;;;;;;0.40;0.20;;;;;;;4.11;86.25;96363.72;104710;1260;101332;-73
2024/02/05 03:54:28;;;;;;;0.60;0.30;;;;;;;4.11;86.30;96369.84;104756;1258;99727;-73
2024/02/05 03:56:56;;;;;;;1.50;0.40;;;;;;;4.09;86.41;96364.45;104767;1254;97891;-74
2024/02/05 03:59:24;;;;;;;0.70;0.30;;;;;;;4.08;86.47;96359.77;104855;1258;98434;-74
2024/02/05 04:01:51;;;;;;;0.40;0.30;;;;;;;4.08;86.35;96360.38;104685;1277;109993;-77
2024/02/05 04:04:19;;;;;;;0.20;0.20;;;;;;;4.09;86.52;96348.19;104783;1260;101425;-77
2024/02/05 04:06:47;;;;;;;0.90;0.30;;;;;;;4.09;86.67;96350.98;104659;1273;99775;-77
2024/02/05 04:09:15;;;;;;;0.90;0.40;;;;;;;4.11;86.63;96348.92;104873;1276;97917;-77
2024/02/05 04:11:43;;;;;;;0.40;0.30;;;;;;;4.12;86.77;96341.02;104726;1261;98481;-77
2024/02/05 04:14:11;;;;;;;0.50;0.50;;;;;;;4.12;86.81;96331.20;104848;1256;103164;-77
2024/02/05 04:16:39;;;;;;;0.80;0.40;;;;;;;4.13;86.86;96332.16;104796;1258;101492;-76
2024/02/05 04:19:06;;;;;;;0.30;0.30;;;;;;;4.15;86.72;96328.68;104725;1261;99962;-74
2024/02/05 04:21:34;;;;;;;0.60;0.40;;;;;;;4.18;86.83;96322.05;104731;1255;99132;-74
2024/02/05 04:24:02;;;;;;;0.90;0.40;;;;;;;4.22;87.11;96319.40;104814;1258;98574;-74
2024/02/05 04:26:29;;;;;;;0.30;0.30;;;;;;;4.25;87.38;96323.02;104838;1259;103285;-74
2024/02/05 04:28:57;;;;;;;0.30;0.30;;;;;;;4.28;87.52;96317.73;104819;1256;101326;-74
2024/02/05 04:31:25;;;;;;;0.40;0.30;;;;;;;4.29;87.59;96320.79;104790;1258;100061;-74
2024/02/05 04:33:54;;;;;;;1.20;0.40;;;;;;;4.31;87.50;96311.20;104722;1258;97942;-74
2024/02/05 04:36:22;;;;;;;2.40;1.10;;;;;;;4.36;87.59;96300.48;104777;1258;98343;-74
2024/02/05 04:38:49;;;;;;;2.20;0.60;;;;;;;4.41;88.05;96307.24;104726;1256;103537;-74
2024/02/05 04:41:17;;;;;;;0.40;0.40;;;;;;;4.54;89.04;96302.14;104706;1258;107986;-74
2024/02/05 04:43:45;;;;;;;0.60;0.40;;;;;;;4.63;88.89;96302.79;104761;1258;99994;-74
2024/02/05 04:46:13;;;;;;;1.20;0.40;;;;;;;4.67;88.70;96298.27;104783;1271;97983;-81
2024/02/05 04:48:41;;;;;;;0.60;0.50;;;;;;;4.73;88.76;96297.92;104757;1258;99289;-81
2024/02/05 04:51:12;;;;;;;0.70;0.60;;;;;;;4.77;88.66;96294.69;104795;1259;103673;-81
2024/02/05 04:53:43;;;;;;;0.60;0.40;;;;;;;4.78;88.53;96286.43;104793;1257;101281;-81
2024/02/05 04:56:10;;;;;;;0.90;0.50;;;;;;;4.78;88.87;96285.85;104851;1271;100013;-81
2024/02/05 04:58:38;;;;;;;0.60;0.50;;;;;;;4.83;89.31;96288.23;104889;1259;98395;-77
2024/02/05 05:01:06;;;;;;;1.00;0.90;;;;;;;4.87;89.44;96290.27;104864;1266;98395;-76
2024/02/05 05:03:34;;;;;;;1.60;0.60;;;;;;;4.90;89.25;96285.88;104773;1260;103688;-76
2024/02/05 05:06:02;;;;;;;0.60;0.50;;;;;;;4.92;89.51;96286.05;104856;1256;101393;-76
2024/02/05 05:08:30;;;;;;;1.20;1.00;;;;;;;4.96;89.99;96281.19;104834;1258;100103;-76
2024/02/05 05:10:58;;;;;;;2.80;1.30;;;;;;;5.01;89.67;96280.09;104854;1263;97926;-76
2024/02/05 05:13:25;;;;;;;2.00;1.50;;;;;;;5.05;89.43;96283.98;104886;1272;97997;-76
2024/02/05 05:15:56;;;;;;;3.80;1.90;;;;;;;5.08;89.61;96280.55;104826;1258;103675;-82
2024/02/05 05:18:24;;;;;;;1.60;0.90;;;;;;;5.14;90.08;96281.17;104824;1257;101239;-79
2024/02/05 05:20:52;;;;;;;4.40;2.50;;;;;;;5.24;90.43;96274.11;104872;1256;100208;-79
2024/02/05 05:23:20;;;;;;;3.10;1.50;;;;;;;5.35;90.25;96272.30;104895;1256;97824;-78
2024/02/05 05:25:47;;;;;;;1.60;0.80;;;;;;;5.44;90.73;96277.14;104896;1258;98409;-78
2024/02/05 05:28:15;;;;;;;7.20;2.10;;;;;;;5.57;91.26;96271.41;104866;1258;103596;-78
2024/02/05 05:30:43;;;;;;;4.80;1.30;;;;;;;5.67;91.45;96270.21;104852;1254;101412;-79
2024/02/05 05:33:10;;;;;;;4.70;1.00;;;;;;;5.77;92.13;96268.72;104750;1258;100092;-79
2024/02/05 05:35:38;;;;;;;2.70;1.10;;;;;;;5.83;91.73;96261.94;104801;1268;98834;-79
2024/02/05 05:38:06;;;;;;;4.00;1.90;;;;;;;5.87;91.53;96260.67;104800;1255;99084;-76
2024/02/05 05:40:33;;;;;;;1.80;0.90;;;;;;;5.95;91.79;96258.40;104763;1268;104220;-75
2024/02/05 05:43:01;;;;;;;4.20;1.60;;;;;;;6.06;92.12;96256.88;104777;1258;101416;-76
2024/02/05 05:45:29;;;;;;;7.30;1.70;;;;;;;6.16;92.23;96259.23;104772;1271;100140;-75
2024/02/05 05:47:57;;;;;;;4.90;1.40;;;;;;;6.25;92.04;96260.90;104769;1277;97930;-75
2024/02/05 05:50:25;;;;;;;2.00;1.00;;;;;;;6.31;91.86;96256.21;104783;1257;98419;-76
2024/02/05 05:52:53;;;;;;;1.40;0.70;;;;;;;6.39;91.99;96257.67;104796;1258;103691;-76
2024/02/05 05:55:21;;;;;;;3.40;2.30;;;;;;;6.50;91.77;96258.11;104777;1258;101654;-76
2024/02/05 05:57:49;;;;;;;2.70;1.70;;;;;;;6.58;91.52;96260.18;104779;1258;100037;-75
2024/02/05 06:00:17;;;;;;;1.20;0.80;;;;;;;6.62;91.65;96254.34;104716;1268;97891;-76
2024/02/05 06:02:45;;;;;;;0.40;0.40;;;;;;;6.69;91.84;96257.02;104848;1258;98441;-79
2024/02/05 06:05:13;;;;;;;1.80;0.50;;;;;;;6.77;91.36;96257.55;104847;1258;103378;-78
2024/02/05 06:07:41;;;;;;;2.10;1.10;;;;;;;6.86;91.34;96264.45;104774;1260;101414;-79
2024/02/05 06:10:09;;;;;;;1.80;1.10;;;;;;;6.90;91.37;96260.52;104733;1258;99939;-78
2024/02/05 06:12:37;;;;;;;3.20;1.60;;;;;;;6.92;91.16;96263.29;104744;1258;98537;-78
2024/02/05 06:15:07;;;;;;;2.00;1.10;;;;;;;6.92;91.19;96259.60;104780;1258;98432;-81
2024/02/05 06:17:35;;;;;;;2.90;1.20;;;;;;;6.96;91.20;96268.25;104771;1260;103585;-81
2024/02/05 06:20:05;;;;;;;1.90;1.40;;;;;;;7.00;91.01;96272.11;104930;1258;101176;-81
2024/02/05 06:22:36;;;;;;;3.30;1.50;;;;;;;7.03;90.72;96270.19;104902;1271;100399;-81
2024/02/05 06:25:04;;;;;;;3.00;1.60;;;;;;;7.04;90.60;96274.18;104760;1258;99108;-81
2024/02/05 06:27:32;;;;;;;1.90;1.50;;;;;;;7.05;90.75;96271.25;104706;1256;99247;-80
2024/02/05 06:30:00;;;;;;;1.50;1.30;;;;;;;7.05;90.62;96276.52;104859;1260;103732;-81
2024/02/05 06:32:29;;;;;;;1.90;1.30;;;;;;;7.06;90.41;96267.48;104930;1258;101313;-81
2024/02/05 06:34:56;;;;;;;1.00;0.90;;;;;;;7.08;90.58;96273.71;104735;1268;100195;-82
2024/02/05 06:37:24;;;;;;;1.60;1.10;;;;;;;7.10;90.63;96276.56;104835;1268;97986;-81
2024/02/05 06:39:52;;;;;;;0.80;0.60;;;;;;;7.14;90.47;96279.23;104817;1261;98317;-81
2024/02/05 06:42:21;;;;;;;1.40;0.90;;;;;;;7.18;90.43;96273.92;104760;1258;103528;-81
2024/02/05 06:44:50;;;;;;;1.60;1.20;;;;;;;7.22;90.24;96270.15;104899;1259;101385;-81
2024/02/05 06:47:18;;;;;;;1.30;1.10;;;;;;;7.25;90.11;96268.66;104841;1260;99961;-80
2024/02/05 06:49:45;;;;;;;1.20;1.10;;;;;;;7.27;90.00;96262.66;104756;1258;97922;-81
2024/02/05 06:52:13;;;;;;;1.70;1.10;;;;;;;7.30;89.91;96271.52;104935;1255;97917;-80
2024/02/05 06:54:41;;;;;;;3.90;2.40;;;;;;;7.32;89.81;96268.13;105039;1258;103563;-76
2024/02/05 06:57:08;;;;;;;2.30;1.50;;;;;;;7.32;89.71;96273.00;104867;1259;101188;-76
2024/02/05 06:59:36;;;;;;;2.00;0.90;;;;;;;7.34;89.59;96270.59;104972;1258;100035;-76
2024/02/05 07:02:08;;;;;;;3.20;1.30;;;;;;;7.37;89.45;96267.08;104901;1256;98009;-78
2024/02/05 07:04:36;;;;;;;3.60;1.60;;;;;;;7.45;89.34;96277.31;104969;1258;99250;-79
2024/02/05 07:07:04;;;;;;;2.10;1.20;;;;;;;7.49;89.29;96268.92;104940;1261;103583;-79
2024/02/05 07:09:32;;;;;;;2.60;1.30;;;;;;;7.55;89.21;96290.70;104776;1258;101319;-78
2024/02/05 07:12:00;;;;;;;3.30;1.60;;;;;;;7.59;88.93;96294.06;104753;1259;100042;-77
2024/02/05 07:14:28;;;;;;;2.80;1.60;;;;;;;7.61;88.90;96285.72;104683;1258;98538;-78
2024/02/05 07:16:56;;;;;;;2.00;1.10;;;;;;;7.62;88.87;96278.93;104723;1258;98575;-75
2024/02/05 07:19:23;;;;;;;2.00;1.20;;;;;;;7.65;88.80;96279.08;104743;1256;103633;-75
2024/02/05 07:21:51;;;;;;;2.90;1.60;;;;;;;7.68;88.84;96282.61;104897;1258;101515;-75
2024/02/05 07:24:19;;;;;;;1.00;0.90;;;;;;;7.71;88.50;96278.25;104721;1268;99853;-76
2024/02/05 07:26:46;;;;;;;1.90;1.00;;;;;;;7.77;88.49;96285.96;104740;1256;98840;-75
2024/02/05 07:29:14;;;;;;;2.30;2.00;;;;;;;7.79;88.58;96290.15;104678;1256;98504;-75
2024/02/05 07:31:42;;;;;;;0.70;0.70;;;;;;;7.80;88.48;96298.21;104768;1256;103710;-78
2024/02/05 07:34:09;;;;;;;2.90;0.90;;;;;;;7.83;88.22;96294.92;104777;1259;101219;-77
2024/02/05 07:36:37;;;;;;;2.40;1.00;;;;;;;7.86;88.11;96301.61;104812;1258;99829;-78
2024/02/05 07:39:08;;;;;;;2.50;1.80;;;;;;;7.87;88.20;96299.25;104799;1259;97903;-78
2024/02/05 07:41:35;;;;;;;3.00;1.90;;;;;;;7.88;88.18;96311.48;104856;1258;98420;-78
2024/02/05 07:44:03;;;;;;;3.40;2.10;;;;;;;7.88;88.28;96315.08;104798;1267;103450;-78
2024/02/05 07:46:31;;;;;;;1.70;1.20;;;;;;;7.89;88.41;96309.45;104842;1258;100473;-77
2024/02/05 07:48:59;;;;;;;0.90;0.90;;;;;;;7.91;88.35;96313.02;104928;1259;99974;-78
2024/02/05 07:51:27;;;;;;;3.10;1.20;;;;;;;7.94;88.20;96310.81;104838;1270;97925;-76
2024/02/05 07:53:54;;;;;;;7.10;3.90;;;;;;;7.96;88.14;96314.63;104847;1271;98413;-79
2024/02/05 07:56:22;;;;;;;3.50;2.00;;;;;;;7.99;88.10;96305.02;104838;1258;103862;-79
2024/02/05 07:58:50;;;;;;;3.00;1.90;;;;;;;8.01;87.96;96320.94;104838;1261;101665;-78
2024/02/05 08:01:19;;;;;;;2.90;1.50;;;;;;;8.06;87.67;96319.02;104967;1258;100085;-75
2024/02/05 08:03:46;;;;;;;1.60;0.70;;;;;;;8.09;87.54;96323.84;104816;1256;97903;-76
2024/02/05 08:06:19;;;;;;;2.80;1.20;;;;;;;8.14;87.21;96326.03;104911;1258;98405;-76
2024/02/05 08:08:47;;;;;;;2.60;1.30;;;;;;;8.22;86.95;96323.20;104714;1254;103565;-76
2024/02/05 08:11:16;;;;;;;1.90;1.20;;;;;;;8.26;86.74;96320.82;104891;1258;101412;-76
2024/02/05 08:13:44;;;;;;;3.90;1.80;;;;;;;8.29;86.66;96329.48;104841;1258;100206;-75
2024/02/05 08:16:12;;;;;;;9.10;2.80;;;;;;;8.32;86.58;96322.91;104724;1260;99115;-81
2024/02/05 08:18:41;;;;;;;1.80;1.20;;;;;;;8.34;86.43;96313.36;104717;1262;97825;-80
2024/02/05 08:21:09;;;;;;;3.70;1.40;;;;;;;8.36;86.11;96322.10;104792;1258;103786;-80
2024/02/05 08:23:38;;;;;;;2.00;0.90;;;;;;;8.39;85.95;96330.64;104715;1258;100584;-81
2024/02/05 08:26:06;;;;;;;1.70;1.30;;;;;;;8.44;84.98;96326.96;104797;1268;100045;-81
2024/02/05 08:28:34;;;;;;;1.90;1.60;;;;;;;8.47;85.46;96331.59;104882;1258;97915;-80
2024/02/05 08:31:03;;;;;;;1.10;0.90;;;;;;;8.49;85.60;96347.54;104851;1258;98445;-80
2024/02/05 08:33:31;;;;;;;3.20;2.00;;;;;;;8.49;85.29;96345.50;104856;1254;103505;-80
2024/02/05 08:35:59;;;;;;;2.40;1.30;;;;;;;8.50;85.15;96358.98;104944;1256;101305;-84
2024/02/05 08:38:27;;;;;;;2.40;1.40;;;;;;;8.51;84.57;96352.47;104745;1270;100127;-80
2024/02/05 08:40:56;;;;;;;3.50;1.00;;;;;;;8.53;84.62;96358.17;104899;1258;97986;-81
2024/02/05 08:43:24;;;;;;;2.10;1.50;;;;;;;8.54;84.67;96360.57;104893;1256;98409;-80
2024/02/05 08:45:52;;;;;;;4.10;1.40;;;;;;;8.55;84.61;96360.52;104879;1258;103576;-79
2024/02/05 08:48:20;;;;;;;1.30;0.60;;;;;;;8.57;84.67;96360.55;104923;1258;101515;-75
2024/02/05 08:50:47;;;;;;;1.10;1.00;;;;;;;8.61;84.67;96365.88;104916;1267;100011;-75
2024/02/05 08:53:16;;;;;;;2.00;1.20;;;;;;;8.64;84.76;96367.44;104878;1258;97957;-74
2024/02/05 08:55:44;;;;;;;1.30;0.90;;;;;;;8.67;84.72;96371.02;104817;1258;97847;-75
2024/02/05 08:58:12;;;;;;;3.10;1.50;;;;;;;8.68;84.74;96372.09;104745;1269;103333;-75
2024/02/05 09:00:40;;;;;;;4.10;2.10;;;;;;;8.68;85.01;96360.58;104826;1257;101359;-75
2024/02/05 09:03:07;;;;;;;2.80;1.40;;;;;;;8.67;85.00;96364.55;104837;1259;99927;-75
2024/02/05 09:05:35;;;;;;;3.50;2.20;;;;;;;8.67;84.87;96366.71;104919;1259;97830;-75
2024/02/05 09:08:03;;;;;;;4.50;1.30;;;;;;;8.69;84.96;96367.52;104917;1259;98320;-75
2024/02/05 09:10:31;;;;;;;3.70;2.30;;;;;;;8.72;84.87;96375.50;104904;1276;103633;-75
2024/02/05 09:12:58;;;;;;;2.20;1.50;;;;;;;8.75;84.75;96380.27;104864;1258;101222;-75
2024/02/05 09:15:27;;;;;;;2.40;1.80;;;;;;;8.78;84.65;96385.58;104850;1259;100126;-76
2024/02/05 09:17:54;;;;;;;2.00;1.10;;;;;;;8.81;84.58;96384.50;104871;1268;98820;-80
2024/02/05 09:20:23;;;;;;;0.80;0.50;;;;;;;8.85;84.24;96388.34;104817;1259;98412;-81
2024/02/05 09:22:50;;;;;;;1.70;0.80;;;;;;;8.89;83.93;96383.84;104761;1258;103354;-81
2024/02/05 09:25:18;;;;;;;2.70;1.10;;;;;;;8.94;83.99;96389.23;104876;1259;101071;-80
2024/02/05 09:27:46;;;;;;;1.70;1.10;;;;;;;8.98;83.53;96389.92;104872;1258;99918;-81
2024/02/05 09:30:14;;;;;;;1.80;1.00;;;;;;;9.00;83.20;96393.88;104835;1268;97905;-80
2024/02/05 09:32:41;;;;;;;0.70;0.70;;;;;;;9.04;83.10;96409.34;104923;1257;98644;-76
2024/02/05 09:35:09;;;;;;;1.20;1.00;;;;;;;9.05;82.07;96412.64;104864;1259;103551;-76
2024/02/05 09:37:37;;;;;;;0.80;0.40;;;;;;;9.07;81.61;96412.52;104818;1260;101482;-75
2024/02/05 09:40:05;;;;;;;1.10;1.00;;;;;;;9.11;81.93;96415.12;104845;1256;100020;-75
2024/02/05 09:42:34;;;;;;;0.90;0.50;;;;;;;9.14;82.10;96406.27;104806;1258;97898;-75
2024/02/05 09:45:04;;;;;;;1.50;0.70;;;;;;;9.16;82.23;96407.86;104848;1262;98435;-75
2024/02/05 09:47:32;;;;;;;1.40;1.00;;;;;;;9.18;82.45;96406.98;104894;1256;103678;-75
2024/02/05 09:50:03;;;;;;;1.20;0.80;;;;;;;9.19;82.56;96405.23;104786;1257;101458;-76
2024/02/05 09:52:30;;;;;;;1.30;0.50;;;;;;;9.21;82.57;96409.10;104753;1259;100154;-75
2024/02/05 09:54:59;;;;;;;1.00;0.60;;;;;;;9.21;82.31;96407.27;104783;1268;97986;-76
2024/02/05 09:57:30;;;;;;;1.20;1.00;;;;;;;9.23;82.38;96408.30;104863;1256;98370;-75
2024/02/05 09:59:58;;;;;;;0.60;0.60;;;;;;;9.25;82.17;96407.08;104823;1260;103658;-75
2024/02/05 10:02:27;;;;;;;1.00;0.60;;;;;;;9.26;81.55;96408.30;104809;1259;101480;-76
2024/02/05 10:04:57;;;;;;;0.50;0.40;;;;;;;9.29;81.25;96398.94;104882;1260;99998;-79
2024/02/05 10:07:27;;;;;;;1.00;0.70;;;;;;;9.35;81.51;96402.29;104849;1265;97926;-80
2024/02/05 10:09:55;;;;;;;1.10;0.80;;;;;;;9.40;81.34;96394.98;104859;1261;98421;-81
2024/02/05 10:12:24;;;;;;;3.00;1.80;;;;;;;9.42;81.37;96400.95;104862;1260;103735;-83
2024/02/05 10:14:52;;;;;;;1.10;0.80;;;;;;;9.43;81.28;96399.56;104738;1261;100153;-81
2024/02/05 10:17:20;;;;;;;0.70;0.70;;;;;;;9.43;81.10;96400.48;104735;1272;99027;-75
2024/02/05 10:19:47;;;;;;;0.80;0.80;;;;;;;9.42;80.81;96395.95;104805;1259;99231;-75
2024/02/05 10:22:15;;;;;;;0.80;0.80;;;;;;;9.39;80.34;96402.41;104839;1258;98315;-76
2024/02/05 10:24:43;;;;;;;0.70;0.60;;;;;;;9.37;80.45;96401.36;104789;1259;103455;-75
2024/02/05 10:27:17;;;;;;;1.40;1.00;;;;;;;9.36;80.67;96398.80;104881;1266;101459;-75
2024/02/05 10:29:44;;;;;;;1.20;1.10;;;;;;;9.35;80.66;96394.26;104726;1261;100088;-75
2024/02/05 10:32:12;;;;;;;1.10;1.00;;;;;;;9.33;80.89;96393.53;104870;1258;97867;-75
2024/02/05 10:34:40;;;;;;;2.70;1.40;;;;;;;9.32;81.19;96395.19;104800;1270;98317;-75
2024/02/05 10:37:10;;;;;;;1.40;1.00;;;;;;;9.31;81.10;96397.86;104889;1268;103778;-75
2024/02/05 10:39:37;;;;;;;1.80;0.90;;;;;;;9.30;81.04;96390.92;104685;1268;101313;-75
2024/02/05 10:42:05;;;;;;;2.50;1.00;;;;;;;9.27;80.99;96391.89;104810;1260;99580;-75
2024/02/05 10:44:33;;;;;;;2.40;0.90;;;;;;;9.25;81.13;96391.83;104893;1258;97885;-75
2024/02/05 10:47:02;;;;;;;1.30;0.90;;;;;;;9.24;81.18;96402.03;104891;1258;98420;-75
2024/02/05 10:49:30;;;;;;;1.30;1.20;;;;;;;9.23;81.46;96399.52;104883;1268;103669;-75
2024/02/05 10:52:00;;;;;;;1.70;1.50;;;;;;;9.23;81.52;96412.77;104877;1269;99968;-75
2024/02/05 10:54:29;;;;;;;1.30;0.60;;;;;;;9.20;81.41;96409.73;104946;1265;99170;-75
2024/02/05 10:57:00;;;;;;;1.90;1.40;;;;;;;9.17;81.19;96403.56;104887;1260;98015;-75
2024/02/05 10:59:28;;;;;;;1.00;0.80;;;;;;;9.15;80.90;96405.05;104878;1267;98323;-75
2024/02/05 11:02:36;;;;;;;1.30;1.00;;;;;;;9.14;81.15;96407.84;104903;1258;103773;-75
2024/02/05 11:05:06;;;;;;;1.50;1.00;;;;;;;9.13;81.25;96407.80;104660;1274;101798;-75
2024/02/05 11:07:40;;;;;;;1.90;1.30;;;;;;;9.13;81.23;96402.38;104844;1261;99726;-75
2024/02/05 11:10:08;;;;;;;1.90;1.00;;;;;;;9.14;81.07;96403.58;104873;1260;99227;-75
2024/02/05 11:12:38;;;;;;;1.80;1.20;;;;;;;9.16;80.77;96403.67;104800;1261;98356;-74
2024/02/05 11:15:11;;;;;;;1.70;1.20;;;;;;;9.19;80.84;96408.02;104850;1268;104181;-75
2024/02/05 11:17:39;;;;;;;6.60;3.10;;;;;;;9.22;80.35;96402.84;104805;1255;103041;-75
2024/02/05 11:20:12;;;;;;;3.40;2.20;;;;;;;9.26;80.66;96410.13;104800;1261;99989;-75
2024/02/05 11:22:43;;;;;;;5.20;3.20;;;;;;;9.29;80.93;96410.20;104700;1259;97893;-75
2024/02/05 11:25:13;;;;;;;8.60;4.20;;;;;;;9.32;80.98;96411.77;104722;1262;98100;-75
2024/02/05 11:27:43;;;;;;;2.70;2.10;;;;;;;9.35;81.12;96415.42;104751;1272;102790;-75
2024/02/05 11:30:15;;;;;;;2.70;1.70;;;;;;;9.36;81.14;96416.24;104784;1269;101343;-75
2024/02/05 11:32:43;;;;;;;3.40;2.10;;;;;;;9.33;81.12;96410.56;104705;1270;100004;-75
2024/02/05 11:35:14;;;;;;;3.90;1.80;;;;;;;9.31;81.20;96413.02;104498;1260;206950;-75